createdAt,value
2018-10-03T00:00:41.050Z,993.89
2018-10-03T00:01:40.837Z,993.92
2018-10-03T00:02:40.883Z,993.87
2018-10-03T00:03:40.920Z,993.88
2018-10-03T00:04:40.957Z,993.81
2018-10-03T00:05:40.986Z,993.87
2018-10-03T00:06:41.032Z,993.82
2018-10-03T00:07:41.070Z,993.84
2018-10-03T00:08:41.101Z,993.83
2018-10-03T00:09:41.137Z,993.79
2018-10-03T00:10:41.426Z,993.83
2018-10-03T00:11:41.222Z,993.77
2018-10-03T00:12:41.259Z,993.78
2018-10-03T00:13:41.296Z,993.74
2018-10-03T00:14:41.333Z,993.76
2018-10-03T00:15:41.365Z,993.72
2018-10-03T00:16:41.652Z,993.70
2018-10-03T00:17:41.439Z,993.77
2018-10-03T00:18:41.481Z,993.74
2018-10-03T00:19:41.517Z,993.69
2018-10-03T00:20:41.803Z,993.70
2018-10-03T00:21:41.601Z,993.67
2018-10-03T00:22:41.629Z,993.66
2018-10-03T00:23:41.676Z,993.62
2018-10-03T00:24:41.711Z,993.57
2018-10-03T00:25:41.998Z,993.63
2018-10-03T00:26:42.036Z,993.60
2018-10-03T00:27:41.817Z,993.57
2018-10-03T00:28:41.857Z,993.59
2018-10-03T00:29:41.899Z,993.60
2018-10-03T00:30:41.936Z,993.57
2018-10-03T00:31:41.975Z,993.55
2018-10-03T00:32:42.014Z,993.50
2018-10-03T00:33:42.051Z,993.46
2018-10-03T00:34:42.088Z,993.48
2018-10-03T00:35:42.125Z,993.45
2018-10-03T00:36:42.406Z,993.42
2018-10-03T00:37:42.193Z,993.41
2018-10-03T00:38:42.238Z,993.39
2018-10-03T00:39:42.275Z,993.43
2018-10-03T00:40:42.316Z,993.36
2018-10-03T00:41:42.347Z,993.33
2018-10-03T00:42:42.389Z,993.34
2018-10-03T00:43:42.472Z,993.33
2018-10-03T00:44:42.457Z,993.36
2018-10-03T00:45:42.494Z,993.36
2018-10-03T00:46:42.531Z,993.30
2018-10-03T00:47:42.821Z,993.33
2018-10-03T00:48:42.608Z,993.31
2018-10-03T00:49:42.645Z,993.32
2018-10-03T00:50:42.940Z,993.32
2018-10-03T00:51:42.721Z,993.33
2018-10-03T00:52:42.759Z,993.29
2018-10-03T00:53:42.796Z,993.27
2018-10-03T00:54:42.835Z,993.25
2018-10-03T00:55:42.879Z,993.21
2018-10-03T00:56:42.916Z,993.18
2018-10-03T00:57:42.963Z,993.19
2018-10-03T00:58:42.991Z,993.11
2018-10-03T00:59:43.273Z,993.09
2018-10-03T01:00:43.067Z,993.12
2018-10-03T01:01:43.097Z,993.09
2018-10-03T01:02:43.136Z,993.06
2018-10-03T01:03:43.180Z,993.03
2018-10-03T01:04:43.222Z,993.05
2018-10-03T01:06:43.287Z,993.08
2018-10-03T01:07:43.325Z,993.04
2018-10-03T01:08:43.363Z,993.06
2018-10-03T01:09:43.401Z,993.04
2018-10-03T01:10:43.438Z,992.99
2018-10-03T01:11:43.476Z,992.96
2018-10-03T01:12:43.768Z,992.95
2018-10-03T01:13:43.551Z,992.95
2018-10-03T01:14:43.596Z,992.96
2018-10-03T01:15:43.884Z,992.93
2018-10-03T01:16:43.671Z,992.94
2018-10-03T01:17:43.708Z,992.95
2018-10-03T01:18:43.998Z,992.91
2018-10-03T01:19:43.785Z,992.90
2018-10-03T01:20:43.816Z,992.92
2018-10-03T01:21:43.852Z,992.87
2018-10-03T01:22:43.892Z,992.81
2018-10-03T01:23:43.929Z,992.80
2018-10-03T01:24:43.966Z,992.80
2018-10-03T01:25:44.011Z,992.83
2018-10-03T01:26:44.046Z,992.78
2018-10-03T01:27:44.081Z,992.78
2018-10-03T01:28:44.117Z,992.74
2018-10-03T01:29:44.156Z,992.73
2018-10-03T01:30:44.193Z,992.72
2018-10-03T01:31:44.231Z,992.68
2018-10-03T01:32:44.527Z,992.64
2018-10-03T01:33:44.313Z,992.61
2018-10-03T01:34:44.348Z,992.67
2018-10-03T01:35:44.383Z,992.64
2018-10-03T01:36:44.427Z,992.55
2018-10-03T01:37:44.715Z,992.50
2018-10-03T01:38:44.502Z,992.61
2018-10-03T01:39:44.541Z,992.56
2018-10-03T01:40:44.579Z,992.55
2018-10-03T01:41:44.616Z,992.53
2018-10-03T01:42:44.653Z,992.49
2018-10-03T01:43:44.691Z,992.51
2018-10-03T01:44:44.730Z,992.45
2018-10-03T01:45:44.768Z,992.45
2018-10-03T01:46:44.802Z,992.44
2018-10-03T01:47:44.842Z,992.43
2018-10-03T01:48:44.873Z,992.41
2018-10-03T01:49:44.916Z,992.42
2018-10-03T01:50:44.948Z,992.40
2018-10-03T01:51:44.994Z,992.39
2018-10-03T01:52:45.026Z,992.38
2018-10-03T01:53:45.061Z,992.35
2018-10-03T01:54:45.113Z,992.31
2018-10-03T01:55:45.137Z,992.37
2018-10-03T01:56:45.182Z,992.25
2018-10-03T01:57:45.470Z,992.28
2018-10-03T01:58:45.251Z,992.26
2018-10-03T01:59:45.288Z,992.30
2018-10-03T02:00:45.327Z,992.28
2018-10-03T02:01:45.364Z,992.27
2018-10-03T02:02:45.402Z,992.31
2018-10-03T02:03:45.691Z,992.27
2018-10-03T02:04:45.485Z,992.31
2018-10-03T02:05:45.522Z,992.27
2018-10-03T02:06:45.561Z,992.30
2018-10-03T02:07:45.849Z,992.25
2018-10-03T02:08:45.887Z,992.30
2018-10-03T02:09:45.678Z,992.24
2018-10-03T02:10:45.711Z,992.23
2018-10-03T02:11:45.750Z,992.16
2018-10-03T02:12:45.787Z,992.25
2018-10-03T02:13:45.818Z,992.23
2018-10-03T02:14:45.912Z,992.24
2018-10-03T02:15:45.893Z,992.23
2018-10-03T02:16:45.939Z,992.16
2018-10-03T02:17:46.226Z,992.20
2018-10-03T02:18:46.014Z,992.15
2018-10-03T02:19:46.053Z,992.14
2018-10-03T02:20:46.084Z,992.11
2018-10-03T02:21:46.120Z,992.12
2018-10-03T02:22:46.415Z,992.14
2018-10-03T02:23:46.203Z,992.09
2018-10-03T02:24:46.237Z,992.07
2018-10-03T02:25:46.270Z,992.07
2018-10-03T02:26:46.318Z,992.03
2018-10-03T02:27:46.348Z,992.02
2018-10-03T02:28:46.392Z,992.04
2018-10-03T02:29:46.673Z,992.04
2018-10-03T02:30:46.470Z,991.98
2018-10-03T02:31:46.506Z,991.99
2018-10-03T02:32:46.544Z,991.95
2018-10-03T02:33:46.580Z,991.99
2018-10-03T02:34:46.619Z,991.96
2018-10-03T02:35:46.657Z,991.88
2018-10-03T02:36:46.946Z,991.89
2018-10-03T02:37:46.732Z,991.90
2018-10-03T02:38:46.763Z,991.84
2018-10-03T02:39:46.807Z,991.86
2018-10-03T02:40:46.839Z,991.80
2018-10-03T02:41:46.876Z,991.86
2018-10-03T02:42:46.914Z,991.77
2018-10-03T02:43:46.952Z,991.78
2018-10-03T02:44:46.997Z,991.76
2018-10-03T02:45:47.032Z,991.70
2018-10-03T02:46:47.072Z,991.66
2018-10-03T02:47:47.103Z,991.63
2018-10-03T02:48:47.140Z,991.62
2018-10-03T02:49:47.180Z,991.65
2018-10-03T02:50:47.466Z,991.58
2018-10-03T02:51:47.505Z,991.61
2018-10-03T02:52:47.299Z,991.58
2018-10-03T02:53:47.339Z,991.54
2018-10-03T02:54:47.368Z,991.57
2018-10-03T02:55:47.664Z,991.49
2018-10-03T02:56:47.450Z,991.53
2018-10-03T02:57:47.738Z,991.49
2018-10-03T02:58:47.524Z,991.47
2018-10-03T02:59:47.564Z,991.46
2018-10-03T03:00:47.601Z,991.44
2018-10-03T03:01:47.706Z,991.48
2018-10-03T03:02:47.928Z,991.44
2018-10-03T03:03:47.711Z,991.45
2018-10-03T03:04:47.745Z,991.48
2018-10-03T03:05:48.033Z,991.47
2018-10-03T03:06:47.827Z,991.46
2018-10-03T03:07:47.865Z,991.49
2018-10-03T03:08:47.900Z,991.46
2018-10-03T03:09:47.934Z,991.46
2018-10-03T03:10:48.221Z,991.42
2018-10-03T03:11:48.009Z,991.40
2018-10-03T03:12:48.057Z,991.41
2018-10-03T03:13:48.091Z,991.39
2018-10-03T03:14:48.129Z,991.38
2018-10-03T03:15:48.417Z,991.37
2018-10-03T03:16:48.205Z,991.37
2018-10-03T03:17:48.235Z,991.34
2018-10-03T03:18:48.273Z,991.36
2018-10-03T03:19:48.312Z,991.32
2018-10-03T03:20:48.607Z,991.36
2018-10-03T03:21:48.392Z,991.36
2018-10-03T03:22:48.423Z,991.33
2018-10-03T03:23:48.463Z,991.30
2018-10-03T03:24:48.507Z,991.27
2018-10-03T03:25:48.544Z,991.24
2018-10-03T03:26:48.582Z,991.14
2018-10-03T03:27:48.621Z,991.19
2018-10-03T03:28:48.657Z,991.12
2018-10-03T03:29:48.954Z,991.10
2018-10-03T03:30:48.745Z,991.19
2018-10-03T03:31:48.771Z,991.15
2018-10-03T03:32:48.807Z,991.14
2018-10-03T03:33:48.846Z,991.16
2018-10-03T03:34:48.876Z,991.16
2018-10-03T03:35:48.913Z,991.12
2018-10-03T03:36:48.952Z,991.10
2018-10-03T03:37:49.241Z,991.13
2018-10-03T03:38:49.027Z,991.10
2018-10-03T03:39:49.065Z,991.10
2018-10-03T03:40:49.109Z,991.11
2018-10-03T03:41:49.147Z,991.12
2018-10-03T03:42:49.435Z,991.08
2018-10-03T03:43:49.224Z,991.03
2018-10-03T03:44:49.254Z,991.04
2018-10-03T03:45:49.291Z,991.02
2018-10-03T03:46:49.332Z,991.01
2018-10-03T03:47:49.367Z,990.98
2018-10-03T03:48:49.407Z,990.96
2018-10-03T03:49:49.441Z,990.97
2018-10-03T03:50:49.481Z,990.90
2018-10-03T03:51:49.524Z,990.94
2018-10-03T03:52:49.556Z,990.90
2018-10-03T03:53:49.593Z,990.96
2018-10-03T03:54:49.881Z,990.97
2018-10-03T03:55:49.924Z,990.89
2018-10-03T03:56:49.707Z,990.94
2018-10-03T03:57:49.745Z,990.94
2018-10-03T03:58:49.781Z,990.90
2018-10-03T03:59:50.070Z,990.87
2018-10-03T04:00:49.858Z,990.90
2018-10-03T04:01:49.895Z,990.91
2018-10-03T04:02:49.939Z,990.89
2018-10-03T04:03:49.972Z,990.85
2018-10-03T04:04:50.271Z,990.91
2018-10-03T04:05:50.052Z,990.89
2018-10-03T04:06:50.090Z,990.88
2018-10-03T04:07:50.128Z,990.91
2018-10-03T04:08:50.411Z,990.91
2018-10-03T04:09:50.195Z,990.91
2018-10-03T04:10:50.241Z,990.91
2018-10-03T04:11:50.279Z,990.91
2018-10-03T04:12:50.310Z,990.90
2018-10-03T04:13:50.360Z,990.88
2018-10-03T04:14:50.647Z,990.91
2018-10-03T04:15:50.430Z,990.91
2018-10-03T04:16:50.460Z,990.90
2018-10-03T04:17:50.748Z,990.92
2018-10-03T04:18:50.542Z,990.93
2018-10-03T04:19:50.581Z,990.93
2018-10-03T04:20:50.618Z,990.95
2018-10-03T04:21:50.657Z,990.96
2018-10-03T04:22:50.693Z,990.98
2018-10-03T04:23:50.732Z,990.94
2018-10-03T04:24:50.769Z,990.94
2018-10-03T04:25:51.056Z,990.96
2018-10-03T04:26:50.837Z,990.95
2018-10-03T04:27:50.926Z,990.94
2018-10-03T04:28:50.913Z,990.93
2018-10-03T04:29:51.201Z,990.95
2018-10-03T04:30:50.996Z,990.90
2018-10-03T04:31:51.033Z,990.95
2018-10-03T04:32:51.071Z,990.95
2018-10-03T04:33:51.107Z,990.95
2018-10-03T04:34:51.139Z,990.96
2018-10-03T04:35:51.176Z,990.95
2018-10-03T04:36:51.465Z,990.97
2018-10-03T04:37:51.253Z,990.94
2018-10-03T04:38:51.296Z,990.99
2018-10-03T04:39:51.327Z,990.98
2018-10-03T04:40:51.373Z,991.00
2018-10-03T04:41:51.659Z,991.03
2018-10-03T04:42:51.648Z,991.01
2018-10-03T04:43:51.735Z,990.99
2018-10-03T04:44:51.516Z,990.98
2018-10-03T04:45:51.560Z,990.97
2018-10-03T04:46:51.591Z,991.01
2018-10-03T04:47:51.627Z,990.92
2018-10-03T04:48:51.694Z,990.97
2018-10-03T04:49:51.713Z,991.00
2018-10-03T04:50:51.743Z,991.00
2018-10-03T04:51:51.780Z,990.99
2018-10-03T04:52:51.824Z,991.01
2018-10-03T04:53:51.861Z,990.98
2018-10-03T04:54:52.150Z,991.00
2018-10-03T04:55:51.937Z,991.00
2018-10-03T04:56:51.967Z,990.94
2018-10-03T04:57:52.008Z,990.96
2018-10-03T04:58:52.043Z,990.94
2018-10-03T04:59:52.081Z,990.94
2018-10-03T05:00:52.123Z,990.90
2018-10-03T05:01:52.157Z,990.92
2018-10-03T05:02:52.193Z,990.90
2018-10-03T05:03:52.231Z,990.85
2018-10-03T05:04:52.276Z,990.89
2018-10-03T05:05:52.307Z,990.78
2018-10-03T05:06:52.604Z,990.83
2018-10-03T05:07:52.389Z,990.80
2018-10-03T05:08:52.427Z,990.79
2018-10-03T05:09:52.464Z,990.83
2018-10-03T05:10:52.503Z,990.81
2018-10-03T05:11:52.540Z,990.82
2018-10-03T05:12:52.570Z,990.79
2018-10-03T05:13:52.612Z,990.79
2018-10-03T05:14:52.653Z,990.76
2018-10-03T05:15:52.686Z,990.77
2018-10-03T05:16:52.722Z,990.76
2018-10-03T05:17:52.761Z,990.72
2018-10-03T05:18:52.799Z,990.71
2018-10-03T05:19:52.833Z,990.74
2018-10-03T05:20:52.873Z,990.72
2018-10-03T05:21:52.908Z,990.72
2018-10-03T05:22:52.947Z,990.76
2018-10-03T05:23:52.985Z,990.69
2018-10-03T05:24:53.021Z,990.72
2018-10-03T05:25:53.060Z,990.75
2018-10-03T05:26:53.098Z,990.78
2018-10-03T05:27:53.200Z,990.84
2018-10-03T05:28:53.424Z,990.78
2018-10-03T05:29:53.211Z,990.81
2018-10-03T05:30:53.248Z,990.77
2018-10-03T05:31:53.286Z,990.78
2018-10-03T05:32:53.332Z,990.80
2018-10-03T05:33:53.360Z,990.78
2018-10-03T05:34:53.398Z,990.80
2018-10-03T05:35:53.446Z,990.82
2018-10-03T05:36:53.479Z,990.83
2018-10-03T05:37:53.762Z,990.84
2018-10-03T05:38:53.548Z,990.82
2018-10-03T05:39:53.839Z,990.85
2018-10-03T05:40:53.624Z,990.85
2018-10-03T05:41:53.661Z,990.89
2018-10-03T05:42:53.698Z,990.88
2018-10-03T05:43:53.737Z,990.83
2018-10-03T05:44:54.026Z,990.87
2018-10-03T05:45:53.812Z,990.83
2018-10-03T05:46:53.850Z,990.84
2018-10-03T05:47:53.890Z,990.78
2018-10-03T05:48:54.003Z,990.74
2018-10-03T05:49:54.220Z,990.74
2018-10-03T05:50:54.000Z,990.72
2018-10-03T05:51:54.037Z,990.73
2018-10-03T05:52:54.083Z,990.69
2018-10-03T05:53:54.120Z,990.74
2018-10-03T05:54:54.159Z,990.82
2018-10-03T05:55:54.201Z,990.81
2018-10-03T05:56:54.236Z,990.83
2018-10-03T05:57:54.274Z,990.86
2018-10-03T05:58:54.312Z,990.83
2018-10-03T05:59:54.351Z,990.89
2018-10-03T06:00:54.391Z,990.87
2018-10-03T06:01:54.421Z,990.88
2018-10-03T06:02:54.498Z,990.87
2018-10-03T06:03:54.497Z,990.95
2018-10-03T06:04:54.537Z,990.91
2018-10-03T06:05:54.576Z,990.93
2018-10-03T06:06:54.615Z,990.94
2018-10-03T06:07:54.661Z,990.94
2018-10-03T06:08:54.693Z,990.99
2018-10-03T06:09:54.732Z,990.95
2018-10-03T06:10:54.772Z,990.96
2018-10-03T06:11:55.063Z,990.94
2018-10-03T06:12:54.848Z,990.99
2018-10-03T06:13:54.886Z,990.99
2018-10-03T06:14:55.178Z,990.96
2018-10-03T06:15:54.967Z,990.96
2018-10-03T06:16:55.013Z,991.00
2018-10-03T06:17:55.052Z,990.96
2018-10-03T06:18:55.091Z,991.01
2018-10-03T06:19:55.124Z,991.00
2018-10-03T06:20:55.170Z,990.98
2018-10-03T06:21:55.208Z,990.97
2018-10-03T06:22:55.248Z,991.01
2018-10-03T06:23:55.338Z,991.00
2018-10-03T06:24:55.320Z,990.98
2018-10-03T06:25:55.366Z,990.97
2018-10-03T06:26:55.406Z,990.95
2018-10-03T06:27:55.510Z,990.93
2018-10-03T06:28:55.537Z,990.97
2018-10-03T06:29:55.525Z,990.91
2018-10-03T06:30:55.564Z,990.92
2018-10-03T06:31:55.604Z,990.89
2018-10-03T06:32:55.636Z,990.86
2018-10-03T06:33:55.674Z,990.94
2018-10-03T06:34:55.715Z,990.88
2018-10-03T06:35:55.755Z,990.89
2018-10-03T06:36:55.795Z,990.88
2018-10-03T06:37:55.832Z,990.91
2018-10-03T06:38:55.873Z,990.89
2018-10-03T06:39:55.912Z,990.92
2018-10-03T06:40:55.953Z,990.90
2018-10-03T06:41:55.994Z,990.88
2018-10-03T06:42:56.052Z,990.85
2018-10-03T06:43:56.321Z,990.83
2018-10-03T06:44:56.374Z,990.79
2018-10-03T06:45:56.150Z,990.87
2018-10-03T06:46:56.196Z,990.79
2018-10-03T06:47:56.236Z,990.85
2018-10-03T06:48:56.275Z,990.84
2018-10-03T06:49:56.561Z,990.85
2018-10-03T06:50:56.355Z,990.80
2018-10-03T06:51:56.396Z,990.83
2018-10-03T06:52:56.429Z,990.86
2018-10-03T06:53:56.467Z,990.77
2018-10-03T06:54:56.514Z,990.82
2018-10-03T06:55:56.547Z,990.83
2018-10-03T06:56:56.592Z,990.84
2018-10-03T06:57:56.626Z,990.82
2018-10-03T06:58:56.666Z,990.84
2018-10-03T06:59:56.705Z,990.79
2018-10-03T07:00:56.746Z,990.82
2018-10-03T07:01:56.784Z,990.81
2018-10-03T07:02:56.824Z,990.80
2018-10-03T07:03:56.864Z,990.80
2018-10-03T07:04:56.911Z,990.82
2018-10-03T07:05:57.051Z,990.81
2018-10-03T07:06:56.989Z,990.82
2018-10-03T07:07:57.033Z,990.81
2018-10-03T07:08:57.070Z,990.80
2018-10-03T07:09:57.102Z,990.81
2018-10-03T07:10:57.392Z,990.81
2018-10-03T07:11:57.182Z,990.82
2018-10-03T07:12:57.288Z,990.84
2018-10-03T07:13:57.268Z,990.83
2018-10-03T07:14:57.308Z,990.86
2018-10-03T07:15:57.348Z,990.85
2018-10-03T07:16:57.381Z,990.86
2018-10-03T07:17:57.420Z,990.84
2018-10-03T07:18:57.460Z,990.85
2018-10-03T07:19:57.777Z,990.83
2018-10-03T07:20:57.547Z,990.83
2018-10-03T07:21:57.585Z,990.83
2018-10-03T07:22:57.619Z,990.86
2018-10-03T07:23:57.658Z,990.88
2018-10-03T07:24:57.703Z,990.82
2018-10-03T07:25:57.793Z,990.86
2018-10-03T07:26:57.785Z,990.88
2018-10-03T07:27:58.076Z,990.86
2018-10-03T07:28:57.865Z,990.84
2018-10-03T07:29:57.904Z,990.83
2018-10-03T07:30:57.936Z,990.84
2018-10-03T07:31:57.977Z,990.87
2018-10-03T07:32:58.026Z,990.87
2018-10-03T07:33:58.063Z,990.80
2018-10-03T07:34:58.095Z,990.86
2018-10-03T07:35:58.137Z,990.82
2018-10-03T07:36:58.184Z,990.83
2018-10-03T07:37:58.222Z,990.86
2018-10-03T07:38:58.262Z,990.81
2018-10-03T07:39:58.303Z,990.86
2018-10-03T07:40:58.586Z,990.85
2018-10-03T07:41:58.374Z,990.88
2018-10-03T07:42:58.416Z,990.88
2018-10-03T07:43:58.510Z,990.84
2018-10-03T07:44:58.495Z,990.85
2018-10-03T07:45:58.786Z,990.81
2018-10-03T07:46:58.582Z,990.83
2018-10-03T07:47:58.682Z,990.85
2018-10-03T07:48:58.663Z,990.82
2018-10-03T07:49:58.700Z,990.87
2018-10-03T07:50:58.741Z,990.82
2018-10-03T07:51:58.783Z,990.87
2018-10-03T07:52:59.065Z,990.87
2018-10-03T07:53:58.854Z,990.89
2018-10-03T07:54:58.895Z,990.86
2018-10-03T07:55:58.935Z,990.86
2018-10-03T07:56:58.974Z,990.93
2018-10-03T07:57:59.012Z,990.85
2018-10-03T07:58:59.370Z,990.84
2018-10-03T07:59:59.101Z,990.88
2018-10-03T08:00:59.137Z,990.86
2018-10-03T08:01:59.179Z,990.87
2018-10-03T08:02:59.221Z,990.85
2018-10-03T08:03:59.259Z,990.83
2018-10-03T08:04:59.300Z,990.82
2018-10-03T08:05:59.532Z,990.85
2018-10-03T08:06:59.630Z,990.88
2018-10-03T08:07:59.424Z,990.82
2018-10-03T08:08:59.471Z,990.85
2018-10-03T08:09:59.525Z,990.84
2018-10-03T08:10:59.532Z,990.85
2018-10-03T08:11:59.571Z,990.88
2018-10-03T08:12:59.632Z,990.87
2018-10-03T08:13:59.651Z,990.88
2018-10-03T08:14:59.947Z,990.87
2018-10-03T08:15:59.740Z,990.84
2018-10-03T08:16:59.772Z,990.85
2018-10-03T08:17:59.809Z,990.84
2018-10-03T08:18:59.850Z,990.84
2018-10-03T08:19:59.888Z,990.82
2018-10-03T08:20:59.931Z,990.79
2018-10-03T08:21:59.971Z,990.81
2018-10-03T08:23:00.017Z,990.87
2018-10-03T08:24:00.055Z,990.86
2018-10-03T08:25:00.094Z,990.88
2018-10-03T08:26:00.131Z,990.87
2018-10-03T08:27:00.162Z,990.86
2018-10-03T08:28:00.200Z,990.91
2018-10-03T08:29:00.501Z,990.88
2018-10-03T08:30:00.334Z,990.89
2018-10-03T08:31:00.321Z,990.87
2018-10-03T08:32:00.358Z,990.88
2018-10-03T08:33:00.544Z,990.86
2018-10-03T08:34:00.683Z,990.82
2018-10-03T08:35:00.713Z,990.87
2018-10-03T08:36:00.501Z,990.86
2018-10-03T08:37:00.539Z,990.84
2018-10-03T08:38:00.583Z,990.86
2018-10-03T08:39:00.620Z,990.54
2018-10-03T08:40:00.908Z,990.56
2018-10-03T08:41:00.690Z,990.58
2018-10-03T08:42:00.726Z,990.59
2018-10-03T08:43:00.769Z,990.60
2018-10-03T08:44:00.808Z,990.63
2018-10-03T08:45:01.097Z,990.65
2018-10-03T08:46:00.881Z,990.63
2018-10-03T08:47:00.918Z,990.66
2018-10-03T08:48:00.959Z,990.63
2018-10-03T08:49:00.987Z,990.67
2018-10-03T08:50:01.023Z,990.68
2018-10-03T08:51:01.067Z,990.65
2018-10-03T08:52:01.192Z,990.68
2018-10-03T08:53:01.136Z,990.66
2018-10-03T08:54:01.172Z,990.65
2018-10-03T08:55:01.210Z,990.64
2018-10-03T08:56:01.447Z,990.63
2018-10-03T08:57:01.292Z,990.65
2018-10-03T08:58:01.367Z,990.61
2018-10-03T08:59:01.365Z,990.67
2018-10-03T09:00:01.403Z,990.62
2018-10-03T09:01:01.440Z,990.63
2018-10-03T09:02:01.477Z,990.64
2018-10-03T09:03:01.514Z,990.64
2018-10-03T09:04:01.552Z,990.64
2018-10-03T09:05:01.584Z,990.67
2018-10-03T09:06:01.676Z,990.67
2018-10-03T09:07:01.657Z,990.71
2018-10-03T09:08:01.695Z,990.71
2018-10-03T09:09:01.737Z,990.69
2018-10-03T09:10:01.775Z,990.88
2018-10-03T09:11:01.809Z,990.89
2018-10-03T09:12:01.844Z,990.86
2018-10-03T09:13:01.880Z,990.85
2018-10-03T09:14:01.919Z,990.84
2018-10-03T09:15:01.954Z,990.99
2018-10-03T09:16:01.995Z,990.99
2018-10-03T09:17:02.030Z,991.01
2018-10-03T09:18:02.071Z,990.98
2018-10-03T09:19:02.111Z,990.99
2018-10-03T09:20:02.142Z,991.03
2018-10-03T09:21:02.236Z,991.00
2018-10-03T09:22:02.223Z,991.03
2018-10-03T09:23:02.260Z,991.06
2018-10-03T09:24:02.298Z,991.08
2018-10-03T09:25:02.336Z,991.09
2018-10-03T09:26:02.367Z,991.07
2018-10-03T09:27:02.403Z,991.08
2018-10-03T09:28:02.448Z,991.12
2018-10-03T09:29:02.478Z,991.13
2018-10-03T09:30:02.516Z,991.13
2018-10-03T09:31:02.553Z,991.09
2018-10-03T09:32:02.590Z,991.15
2018-10-03T09:33:02.881Z,991.17
2018-10-03T09:34:02.665Z,991.18
2018-10-03T09:35:02.703Z,991.17
2018-10-03T09:36:02.739Z,991.19
2018-10-03T09:37:02.778Z,991.20
2018-10-03T09:38:02.812Z,991.19
2018-10-03T09:39:03.100Z,991.22
2018-10-03T09:40:02.885Z,991.21
2018-10-03T09:41:02.923Z,991.22
2018-10-03T09:42:02.959Z,991.26
2018-10-03T09:43:02.995Z,991.27
2018-10-03T09:44:03.036Z,991.29
2018-10-03T09:45:03.069Z,991.28
2018-10-03T09:46:03.106Z,991.31
2018-10-03T09:47:03.141Z,991.31
2018-10-03T09:48:03.179Z,991.28
2018-10-03T09:49:03.223Z,991.31
2018-10-03T09:50:03.260Z,991.33
2018-10-03T09:51:03.297Z,991.34
2018-10-03T09:52:03.335Z,991.35
2018-10-03T09:53:03.369Z,991.32
2018-10-03T09:54:03.402Z,991.36
2018-10-03T09:55:03.446Z,991.39
2018-10-03T09:56:03.479Z,991.39
2018-10-03T09:57:03.517Z,991.38
2018-10-03T09:58:03.550Z,991.40
2018-10-03T09:59:03.588Z,991.44
2018-10-03T10:00:03.632Z,991.46
2018-10-03T10:01:03.666Z,991.43
2018-10-03T10:02:03.701Z,991.49
2018-10-03T10:03:03.736Z,991.49
2018-10-03T10:04:03.774Z,991.49
2018-10-03T10:05:03.818Z,991.47
2018-10-03T10:06:03.857Z,991.47
2018-10-03T10:07:03.893Z,991.45
2018-10-03T10:08:03.930Z,991.48
2018-10-03T10:09:04.218Z,991.49
2018-10-03T10:10:04.048Z,991.43
2018-10-03T10:11:04.062Z,991.44
2018-10-03T10:12:04.072Z,991.48
2018-10-03T10:13:04.109Z,991.47
2018-10-03T10:14:04.153Z,991.49
2018-10-03T10:15:04.184Z,991.50
2018-10-03T10:16:04.221Z,991.48
2018-10-03T10:17:04.265Z,991.53
2018-10-03T10:18:04.302Z,991.53
2018-10-03T10:19:04.590Z,991.54
2018-10-03T10:20:04.378Z,991.56
2018-10-03T10:21:04.413Z,991.57
2018-10-03T10:22:04.445Z,991.58
2018-10-03T10:23:04.486Z,991.59
2018-10-03T10:24:04.519Z,991.57
2018-10-03T10:25:04.558Z,991.62
2018-10-03T10:26:04.844Z,991.57
2018-10-03T10:27:04.631Z,991.58
2018-10-03T10:28:04.672Z,991.59
2018-10-03T10:29:04.957Z,991.58
2018-10-03T10:30:04.748Z,991.61
2018-10-03T10:31:04.781Z,991.63
2018-10-03T10:32:05.146Z,991.65
2018-10-03T10:33:04.887Z,991.64
2018-10-03T10:34:04.892Z,991.62
2018-10-03T10:35:04.931Z,991.61
2018-10-03T10:36:04.967Z,991.62
2018-10-03T10:37:05.011Z,991.66
2018-10-03T10:38:05.055Z,991.64
2018-10-03T10:39:05.336Z,991.65
2018-10-03T10:40:05.158Z,991.67
2018-10-03T10:41:05.306Z,991.66
2018-10-03T10:42:05.441Z,991.62
2018-10-03T10:43:05.227Z,991.61
2018-10-03T10:44:05.265Z,991.67
2018-10-03T10:45:05.310Z,991.69
2018-10-03T10:46:05.347Z,991.68
2018-10-03T10:47:05.384Z,991.67
2018-10-03T10:48:05.423Z,991.67
2018-10-03T10:49:05.703Z,991.69
2018-10-03T10:50:05.511Z,991.68
2018-10-03T10:51:05.785Z,991.68
2018-10-03T10:52:05.571Z,991.70
2018-10-03T10:53:05.604Z,991.67
2018-10-03T10:54:05.640Z,991.72
2018-10-03T10:55:05.679Z,991.69
2018-10-03T10:56:05.964Z,991.68
2018-10-03T10:57:05.758Z,991.67
2018-10-03T10:58:05.795Z,991.71
2018-10-03T10:59:05.831Z,991.70
2018-10-03T11:00:05.863Z,991.75
2018-10-03T11:01:05.906Z,991.75
2018-10-03T11:02:05.937Z,991.76
2018-10-03T11:03:06.224Z,991.77
2018-10-03T11:04:06.012Z,991.77
2018-10-03T11:05:06.055Z,991.76
2018-10-03T11:06:06.150Z,991.79
2018-10-03T11:07:06.130Z,991.79
2018-10-03T11:08:06.417Z,991.79
2018-10-03T11:09:06.197Z,991.78
2018-10-03T11:10:06.236Z,991.79
2018-10-03T11:11:06.274Z,991.83
2018-10-03T11:12:06.560Z,991.83
2018-10-03T11:13:06.353Z,991.83
2018-10-03T11:14:06.640Z,991.86
2018-10-03T11:15:06.428Z,991.88
2018-10-03T11:16:06.467Z,991.89
2018-10-03T11:17:06.564Z,991.88
2018-10-03T11:18:06.532Z,991.92
2018-10-03T11:19:06.576Z,991.93
2018-10-03T11:20:06.607Z,991.97
2018-10-03T11:21:06.644Z,991.97
2018-10-03T11:22:06.680Z,991.99
2018-10-03T11:23:06.718Z,991.97
2018-10-03T11:24:06.886Z,992.00
2018-10-03T11:25:07.050Z,992.02
2018-10-03T11:26:06.829Z,992.01
2018-10-03T11:27:06.873Z,992.01
2018-10-03T11:28:06.910Z,992.02
2018-10-03T11:29:06.941Z,992.03
2018-10-03T11:30:07.229Z,992.07
2018-10-03T11:31:07.026Z,992.05
2018-10-03T11:32:07.121Z,992.06
2018-10-03T11:33:07.090Z,992.07
2018-10-03T11:34:07.127Z,992.09
2018-10-03T11:35:07.415Z,992.10
2018-10-03T11:36:07.202Z,992.11
2018-10-03T11:37:07.239Z,992.13
2018-10-03T11:38:07.286Z,992.12
2018-10-03T11:39:07.320Z,992.16
2018-10-03T11:40:07.357Z,992.15
2018-10-03T11:41:07.395Z,992.20
2018-10-03T11:42:07.432Z,992.23
2018-10-03T11:43:07.461Z,992.22
2018-10-03T11:44:07.499Z,992.21
2018-10-03T11:45:07.545Z,992.23
2018-10-03T11:46:07.579Z,992.22
2018-10-03T11:47:07.620Z,992.27
2018-10-03T11:48:07.654Z,992.28
2018-10-03T11:49:07.684Z,992.25
2018-10-03T11:50:07.727Z,992.28
2018-10-03T11:51:07.765Z,992.27
2018-10-03T11:52:07.806Z,992.29
2018-10-03T11:53:08.090Z,992.33
2018-10-03T11:54:07.876Z,992.34
2018-10-03T11:55:07.908Z,992.34
2018-10-03T11:56:07.943Z,992.39
2018-10-03T11:57:08.022Z,992.36
2018-10-03T11:58:08.017Z,992.34
2018-10-03T11:59:08.305Z,992.37
2018-10-03T12:00:08.092Z,992.38
2018-10-03T12:01:08.139Z,992.40
2018-10-03T12:02:08.171Z,992.41
2018-10-03T12:03:08.254Z,992.41
2018-10-03T12:04:08.239Z,992.43
2018-10-03T12:05:08.535Z,992.44
2018-10-03T12:06:08.315Z,992.43
2018-10-03T12:07:08.357Z,992.46
2018-10-03T12:08:08.395Z,992.50
2018-10-03T12:09:08.699Z,992.51
2018-10-03T12:10:08.462Z,992.53
2018-10-03T12:11:08.498Z,992.54
2018-10-03T12:12:08.535Z,992.55
2018-10-03T12:13:08.580Z,992.57
2018-10-03T12:14:08.610Z,992.55
2018-10-03T12:15:08.654Z,992.60
2018-10-03T12:16:08.691Z,992.58
2018-10-03T12:17:08.722Z,992.58
2018-10-03T12:18:08.758Z,992.58
2018-10-03T12:19:08.795Z,992.60
2018-10-03T12:20:08.840Z,992.62
2018-10-03T12:21:08.877Z,992.63
2018-10-03T12:22:08.913Z,992.65
2018-10-03T12:23:08.951Z,992.64
2018-10-03T12:24:08.988Z,992.66
2018-10-03T12:25:09.051Z,992.66
2018-10-03T12:26:09.062Z,992.71
2018-10-03T12:27:09.102Z,992.67
2018-10-03T12:28:09.137Z,992.70
2018-10-03T12:29:09.174Z,992.73
2018-10-03T12:30:09.211Z,992.76